Terminal Aerodrome Forecast
Issued by NWS

Home | Current Version | Previous Version | Text Only | Print | Product List | Glossary On
Versions: 1 2 3 4 5 6 7 8 9 10 11 12 13 14 15 16 17 18 19
000
FTUS44 KSJT 032323
TAFJCT
TAF
KJCT 032323Z 0400/0424 12006KT P6SM SCT070
     FM040100 13005KT P6SM FEW250
     FM041200 VRB04KT P6SM BKN015
     FM041500 17007KT P6SM SCT035
     FM041800 14007KT P6SM SCT060=

USA.gov is the U.S. government's official web portal to all federal, state and local government web resources and services.